sensor_id;sensor_type;location;lat;lon;timestamp;temperature;humidity
7206;DHT22;3644;53.480;10.004;2022-10-30T00:01:52;15.80;99.90
7206;DHT22;3644;53.480;10.004;2022-10-30T00:04:18;15.70;99.90
7206;DHT22;3644;53.480;10.004;2022-10-30T00:06:43;15.70;99.90
7206;DHT22;3644;53.480;10.004;2022-10-30T00:09:09;15.70;99.90
7206;DHT22;3644;53.480;10.004;2022-10-30T00:11:35;15.70;99.90
7206;DHT22;3644;53.480;10.004;2022-10-30T00:14:00;15.70;99.90
7206;DHT22;3644;53.480;10.004;2022-10-30T00:16:26;15.60;99.90
7206;DHT22;3644;53.480;10.004;2022-10-30T00:18:51;15.60;99.90
7206;DHT22;3644;53.480;10.004;2022-10-30T00:21:17;15.70;99.90
7206;DHT22;3644;53.480;10.004;2022-10-30T00:23:50;15.70;99.90
7206;DHT22;3644;53.480;10.004;2022-10-30T00:26:18;15.60;99.90
7206;DHT22;3644;53.480;10.004;2022-10-30T00:28:47;15.60;99.90
7206;DHT22;3644;53.480;10.004;2022-10-30T00:31:13;15.60;99.90
7206;DHT22;3644;53.480;10.004;2022-10-30T00:33:38;15.50;99.90
7206;DHT22;3644;53.480;10.004;2022-10-30T00:36:04;15.50;99.90
7206;DHT22;3644;53.480;10.004;2022-10-30T00:38:30;15.40;99.90
7206;DHT22;3644;53.480;10.004;2022-10-30T00:40:56;15.40;99.90
7206;DHT22;3644;53.480;10.004;2022-10-30T00:43:34;15.40;99.90
7206;DHT22;3644;53.480;10.004;2022-10-30T00:46:06;15.30;99.90
7206;DHT22;3644;53.480;10.004;2022-10-30T00:48:33;15.30;99.90
7206;DHT22;3644;53.480;10.004;2022-10-30T00:51:00;15.30;99.90
7206;DHT22;3644;53.480;10.004;2022-10-30T00:53:28;15.30;99.90
7206;DHT22;3644;53.480;10.004;2022-10-30T00:55:57;15.30;99.90
7206;DHT22;3644;53.480;10.004;2022-10-30T00:58:29;15.30;99.90
7206;DHT22;3644;53.480;10.004;2022-10-30T01:00:57;15.20;99.90
7206;DHT22;3644;53.480;10.004;2022-10-30T01:03:25;15.20;99.90
7206;DHT22;3644;53.480;10.004;2022-10-30T01:05:56;15.20;99.90
7206;DHT22;3644;53.480;10.004;2022-10-30T01:08:23;15.20;99.90
7206;DHT22;3644;53.480;10.004;2022-10-30T01:10:49;15.10;99.90
7206;DHT22;3644;53.480;10.004;2022-10-30T01:13:15;15.10;99.90
7206;DHT22;3644;53.480;10.004;2022-10-30T01:15:58;15.10;99.90
7206;DHT22;3644;53.480;10.004;2022-10-30T01:21:36;15.10;99.90
7206;DHT22;3644;53.480;10.004;2022-10-30T01:24:24;15.00;99.90
7206;DHT22;3644;53.480;10.004;2022-10-30T01:35:43;14.90;99.90
7206;DHT22;3644;53.480;10.004;2022-10-30T01:38:20;14.90;99.90
7206;DHT22;3644;53.480;10.004;2022-10-30T01:40:47;14.90;99.90
7206;DHT22;3644;53.480;10.004;2022-10-30T01:43:13;15.00;99.90
7206;DHT22;3644;53.480;10.004;2022-10-30T01:45:57;15.00;99.90
7206;DHT22;3644;53.480;10.004;2022-10-30T01:48:28;15.10;99.90
7206;DHT22;3644;53.480;10.004;2022-10-30T01:51:18;15.10;99.90
7206;DHT22;3644;53.480;10.004;2022-10-30T01:54:13;15.10;99.90
7206;DHT22;3644;53.480;10.004;2022-10-30T01:59:49;15.10;99.90
7206;DHT22;3644;53.480;10.004;2022-10-30T02:02:16;15.10;99.90
7206;DHT22;3644;53.480;10.004;2022-10-30T02:04:42;15.10;99.90
7206;DHT22;3644;53.480;10.004;2022-10-30T02:07:09;15.10;99.90
7206;DHT22;3644;53.480;10.004;2022-10-30T02:09:35;15.10;99.90
7206;DHT22;3644;53.480;10.004;2022-10-30T02:12:01;15.00;99.90
7206;DHT22;3644;53.480;10.004;2022-10-30T02:14:30;14.90;99.90
7206;DHT22;3644;53.480;10.004;2022-10-30T02:17:00;14.90;99.90
7206;DHT22;3644;53.480;10.004;2022-10-30T02:19:27;14.90;99.90
7206;DHT22;3644;53.480;10.004;2022-10-30T02:21:52;14.90;99.90
7206;DHT22;3644;53.480;10.004;2022-10-30T02:24:18;14.90;99.90
7206;DHT22;3644;53.480;10.004;2022-10-30T02:26:44;14.90;99.90
7206;DHT22;3644;53.480;10.004;2022-10-30T02:29:09;14.90;99.90
7206;DHT22;3644;53.480;10.004;2022-10-30T02:31:35;14.90;99.90
7206;DHT22;3644;53.480;10.004;2022-10-30T02:34:01;14.80;99.90
7206;DHT22;3644;53.480;10.004;2022-10-30T02:36:27;14.80;99.90
7206;DHT22;3644;53.480;10.004;2022-10-30T02:38:52;14.80;99.90
7206;DHT22;3644;53.480;10.004;2022-10-30T02:41:20;14.70;99.90
7206;DHT22;3644;53.480;10.004;2022-10-30T02:43:45;14.70;99.90
7206;DHT22;3644;53.480;10.004;2022-10-30T02:46:11;14.70;99.90
7206;DHT22;3644;53.480;10.004;2022-10-30T02:48:36;14.60;99.90
7206;DHT22;3644;53.480;10.004;2022-10-30T02:51:03;14.60;99.90
7206;DHT22;3644;53.480;10.004;2022-10-30T02:53:29;14.60;99.90
7206;DHT22;3644;53.480;10.004;2022-10-30T02:55:55;14.60;99.90
7206;DHT22;3644;53.480;10.004;2022-10-30T02:58:21;14.60;99.90
7206;DHT22;3644;53.480;10.004;2022-10-30T03:00:46;14.60;99.90
7206;DHT22;3644;53.480;10.004;2022-10-30T03:03:11;14.60;99.90
7206;DHT22;3644;53.480;10.004;2022-10-30T03:05:37;14.50;99.90
7206;DHT22;3644;53.480;10.004;2022-10-30T03:08:03;14.50;99.90
7206;DHT22;3644;53.480;10.004;2022-10-30T03:10:29;14.50;99.90
7206;DHT22;3644;53.480;10.004;2022-10-30T03:12:54;14.40;99.90
7206;DHT22;3644;53.480;10.004;2022-10-30T03:15:20;14.50;99.90
7206;DHT22;3644;53.480;10.004;2022-10-30T03:17:45;14.40;99.90
7206;DHT22;3644;53.480;10.004;2022-10-30T03:20:11;14.40;99.90
7206;DHT22;3644;53.480;10.004;2022-10-30T03:22:37;14.40;99.90
7206;DHT22;3644;53.480;10.004;2022-10-30T03:25:03;14.40;99.90
7206;DHT22;3644;53.480;10.004;2022-10-30T03:27:28;14.40;99.90
7206;DHT22;3644;53.480;10.004;2022-10-30T03:29:54;14.30;99.90
7206;DHT22;3644;53.480;10.004;2022-10-30T03:32:19;14.30;99.90
7206;DHT22;3644;53.480;10.004;2022-10-30T03:34:45;14.30;99.90
7206;DHT22;3644;53.480;10.004;2022-10-30T03:37:10;14.30;99.90
7206;DHT22;3644;53.480;10.004;2022-10-30T03:39:36;14.20;99.90
7206;DHT22;3644;53.480;10.004;2022-10-30T03:42:01;14.20;99.90
7206;DHT22;3644;53.480;10.004;2022-10-30T03:44:27;14.20;99.90
7206;DHT22;3644;53.480;10.004;2022-10-30T03:46:52;14.20;99.90
7206;DHT22;3644;53.480;10.004;2022-10-30T03:49:18;14.30;99.90
7206;DHT22;3644;53.480;10.004;2022-10-30T03:51:43;14.30;99.90
7206;DHT22;3644;53.480;10.004;2022-10-30T03:54:09;14.20;99.90
7206;DHT22;3644;53.480;10.004;2022-10-30T03:56:34;14.20;99.90
7206;DHT22;3644;53.480;10.004;2022-10-30T03:59:00;14.20;99.90
7206;DHT22;3644;53.480;10.004;2022-10-30T04:01:25;14.20;99.90
7206;DHT22;3644;53.480;10.004;2022-10-30T04:03:51;14.20;99.90
7206;DHT22;3644;53.480;10.004;2022-10-30T04:06:16;14.20;99.90
7206;DHT22;3644;53.480;10.004;2022-10-30T04:08:42;14.20;99.90
7206;DHT22;3644;53.480;10.004;2022-10-30T04:11:10;14.20;99.90
7206;DHT22;3644;53.480;10.004;2022-10-30T04:13:36;14.20;99.90
7206;DHT22;3644;53.480;10.004;2022-10-30T04:16:01;14.20;99.90
7206;DHT22;3644;53.480;10.004;2022-10-30T04:18:27;14.20;99.90
7206;DHT22;3644;53.480;10.004;2022-10-30T04:20:53;14.20;99.90
7206;DHT22;3644;53.480;10.004;2022-10-30T04:23:20;14.20;99.90
7206;DHT22;3644;53.480;10.004;2022-10-30T04:25:46;14.20;99.90
7206;DHT22;3644;53.480;10.004;2022-10-30T04:28:12;14.10;99.90
7206;DHT22;3644;53.480;10.004;2022-10-30T04:30:38;14.10;99.90
7206;DHT22;3644;53.480;10.004;2022-10-30T04:33:06;14.10;99.90
7206;DHT22;3644;53.480;10.004;2022-10-30T04:35:34;14.10;99.90
7206;DHT22;3644;53.480;10.004;2022-10-30T04:38:06;14.10;99.90
7206;DHT22;3644;53.480;10.004;2022-10-30T04:40:34;14.10;99.90
7206;DHT22;3644;53.480;10.004;2022-10-30T04:43:00;14.10;99.90
7206;DHT22;3644;53.480;10.004;2022-10-30T04:45:27;14.10;99.90
7206;DHT22;3644;53.480;10.004;2022-10-30T04:47:59;14.00;99.90
7206;DHT22;3644;53.480;10.004;2022-10-30T04:50:26;14.10;99.90
7206;DHT22;3644;53.480;10.004;2022-10-30T04:53:01;14.10;99.90
7206;DHT22;3644;53.480;10.004;2022-10-30T04:55:27;14.10;99.90
7206;DHT22;3644;53.480;10.004;2022-10-30T04:57:57;14.10;99.90
7206;DHT22;3644;53.480;10.004;2022-10-30T05:00:24;14.10;99.90
7206;DHT22;3644;53.480;10.004;2022-10-30T05:02:49;14.10;99.90
7206;DHT22;3644;53.480;10.004;2022-10-30T05:05:15;14.10;99.90
7206;DHT22;3644;53.480;10.004;2022-10-30T05:07:40;14.10;99.90
7206;DHT22;3644;53.480;10.004;2022-10-30T05:10:06;14.10;99.90
7206;DHT22;3644;53.480;10.004;2022-10-30T05:12:32;14.10;99.90
7206;DHT22;3644;53.480;10.004;2022-10-30T05:14:57;14.00;99.90
7206;DHT22;3644;53.480;10.004;2022-10-30T05:17:22;14.00;99.90
7206;DHT22;3644;53.480;10.004;2022-10-30T05:19:48;14.10;99.90
7206;DHT22;3644;53.480;10.004;2022-10-30T05:22:13;14.10;99.90
7206;DHT22;3644;53.480;10.004;2022-10-30T05:24:39;14.00;99.90
7206;DHT22;3644;53.480;10.004;2022-10-30T05:27:05;14.00;99.90
7206;DHT22;3644;53.480;10.004;2022-10-30T05:29:30;14.00;99.90
7206;DHT22;3644;53.480;10.004;2022-10-30T05:31:56;14.00;99.90
7206;DHT22;3644;53.480;10.004;2022-10-30T05:34:21;14.00;99.90
7206;DHT22;3644;53.480;10.004;2022-10-30T05:36:46;13.90;99.90
7206;DHT22;3644;53.480;10.004;2022-10-30T05:39:12;13.90;99.90
7206;DHT22;3644;53.480;10.004;2022-10-30T05:41:37;13.90;99.90
7206;DHT22;3644;53.480;10.004;2022-10-30T05:44:03;13.90;99.90
7206;DHT22;3644;53.480;10.004;2022-10-30T05:46:29;13.90;99.90
7206;DHT22;3644;53.480;10.004;2022-10-30T05:48:54;13.90;99.90
7206;DHT22;3644;53.480;10.004;2022-10-30T05:51:20;13.90;99.90
7206;DHT22;3644;53.480;10.004;2022-10-30T05:53:47;13.90;99.90
7206;DHT22;3644;53.480;10.004;2022-10-30T05:56:13;13.80;99.90
7206;DHT22;3644;53.480;10.004;2022-10-30T05:58:38;13.80;99.90
7206;DHT22;3644;53.480;10.004;2022-10-30T06:01:05;13.90;99.90
7206;DHT22;3644;53.480;10.004;2022-10-30T06:03:31;13.80;99.90
7206;DHT22;3644;53.480;10.004;2022-10-30T06:05:57;13.80;99.90
7206;DHT22;3644;53.480;10.004;2022-10-30T06:08:22;13.70;99.90
7206;DHT22;3644;53.480;10.004;2022-10-30T06:10:48;13.70;99.90
7206;DHT22;3644;53.480;10.004;2022-10-30T06:13:13;13.60;99.90
7206;DHT22;3644;53.480;10.004;2022-10-30T06:15:39;13.60;99.90
7206;DHT22;3644;53.480;10.004;2022-10-30T06:18:04;13.60;99.90
7206;DHT22;3644;53.480;10.004;2022-10-30T06:20:30;13.70;99.90
7206;DHT22;3644;53.480;10.004;2022-10-30T06:23:00;13.70;99.90
7206;DHT22;3644;53.480;10.004;2022-10-30T06:25:28;13.60;99.90
7206;DHT22;3644;53.480;10.004;2022-10-30T06:27:53;13.60;99.90
7206;DHT22;3644;53.480;10.004;2022-10-30T06:30:19;13.60;99.90
7206;DHT22;3644;53.480;10.004;2022-10-30T06:32:45;13.70;99.90
7206;DHT22;3644;53.480;10.004;2022-10-30T06:35:11;13.60;99.90
7206;DHT22;3644;53.480;10.004;2022-10-30T06:37:37;13.60;99.90
7206;DHT22;3644;53.480;10.004;2022-10-30T06:40:07;13.60;99.90
7206;DHT22;3644;53.480;10.004;2022-10-30T06:42:44;13.60;99.90
7206;DHT22;3644;53.480;10.004;2022-10-30T06:45:11;13.70;99.90
7206;DHT22;3644;53.480;10.004;2022-10-30T06:47:37;13.70;99.90
7206;DHT22;3644;53.480;10.004;2022-10-30T06:50:05;13.70;99.90
7206;DHT22;3644;53.480;10.004;2022-10-30T06:52:30;13.70;99.90
7206;DHT22;3644;53.480;10.004;2022-10-30T06:54:56;13.70;99.90
7206;DHT22;3644;53.480;10.004;2022-10-30T06:57:22;13.70;99.90
7206;DHT22;3644;53.480;10.004;2022-10-30T06:59:47;13.70;99.90
7206;DHT22;3644;53.480;10.004;2022-10-30T07:02:13;13.80;99.90
7206;DHT22;3644;53.480;10.004;2022-10-30T07:04:38;13.80;99.90
7206;DHT22;3644;53.480;10.004;2022-10-30T07:07:04;13.90;99.90
7206;DHT22;3644;53.480;10.004;2022-10-30T07:09:29;13.90;99.90
7206;DHT22;3644;53.480;10.004;2022-10-30T07:11:55;13.90;99.90
7206;DHT22;3644;53.480;10.004;2022-10-30T07:14:20;13.90;99.90
7206;DHT22;3644;53.480;10.004;2022-10-30T07:16:46;13.90;99.90
7206;DHT22;3644;53.480;10.004;2022-10-30T07:19:12;14.00;99.90
7206;DHT22;3644;53.480;10.004;2022-10-30T07:21:37;14.00;99.90
7206;DHT22;3644;53.480;10.004;2022-10-30T07:24:03;14.00;99.90
7206;DHT22;3644;53.480;10.004;2022-10-30T07:26:28;14.00;99.90
7206;DHT22;3644;53.480;10.004;2022-10-30T07:28:54;14.00;99.90
7206;DHT22;3644;53.480;10.004;2022-10-30T07:31:19;14.10;99.90
7206;DHT22;3644;53.480;10.004;2022-10-30T07:33:45;14.10;99.90
7206;DHT22;3644;53.480;10.004;2022-10-30T07:36:11;14.10;99.90
7206;DHT22;3644;53.480;10.004;2022-10-30T07:38:37;14.10;99.90
7206;DHT22;3644;53.480;10.004;2022-10-30T07:41:02;14.20;99.90
7206;DHT22;3644;53.480;10.004;2022-10-30T07:43:28;14.10;99.90
7206;DHT22;3644;53.480;10.004;2022-10-30T07:45:53;14.20;99.90
7206;DHT22;3644;53.480;10.004;2022-10-30T07:48:19;14.20;99.90
7206;DHT22;3644;53.480;10.004;2022-10-30T07:50:45;14.20;99.90
7206;DHT22;3644;53.480;10.004;2022-10-30T07:53:10;14.20;99.90
7206;DHT22;3644;53.480;10.004;2022-10-30T07:55:36;14.30;99.90
7206;DHT22;3644;53.480;10.004;2022-10-30T07:58:01;14.30;99.90
7206;DHT22;3644;53.480;10.004;2022-10-30T08:00:27;14.40;99.90
7206;DHT22;3644;53.480;10.004;2022-10-30T08:02:55;14.50;99.90
7206;DHT22;3644;53.480;10.004;2022-10-30T08:05:21;14.50;99.90
7206;DHT22;3644;53.480;10.004;2022-10-30T08:07:47;14.60;99.90
7206;DHT22;3644;53.480;10.004;2022-10-30T08:10:13;14.70;99.90
7206;DHT22;3644;53.480;10.004;2022-10-30T08:12:38;14.80;99.90
7206;DHT22;3644;53.480;10.004;2022-10-30T08:15:06;14.90;99.90
7206;DHT22;3644;53.480;10.004;2022-10-30T08:17:32;15.00;99.90
7206;DHT22;3644;53.480;10.004;2022-10-30T08:19:58;15.10;99.90
7206;DHT22;3644;53.480;10.004;2022-10-30T08:22:23;15.10;99.90
7206;DHT22;3644;53.480;10.004;2022-10-30T08:24:49;17.20;99.90
7206;DHT22;3644;53.480;10.004;2022-10-30T08:27:15;15.20;99.90
7206;DHT22;3644;53.480;10.004;2022-10-30T08:29:40;15.40;99.90
7206;DHT22;3644;53.480;10.004;2022-10-30T08:32:06;15.40;99.90
7206;DHT22;3644;53.480;10.004;2022-10-30T08:34:31;15.50;99.90
7206;DHT22;3644;53.480;10.004;2022-10-30T08:36:58;15.60;99.90
7206;DHT22;3644;53.480;10.004;2022-10-30T08:39:24;15.70;99.90
7206;DHT22;3644;53.480;10.004;2022-10-30T08:41:50;15.80;99.90
7206;DHT22;3644;53.480;10.004;2022-10-30T08:44:15;15.80;99.90
7206;DHT22;3644;53.480;10.004;2022-10-30T08:46:41;15.80;99.90
7206;DHT22;3644;53.480;10.004;2022-10-30T08:49:06;15.90;99.90
7206;DHT22;3644;53.480;10.004;2022-10-30T08:51:33;15.90;99.90
7206;DHT22;3644;53.480;10.004;2022-10-30T08:53:59;16.00;99.90
7206;DHT22;3644;53.480;10.004;2022-10-30T08:56:25;16.00;99.90
7206;DHT22;3644;53.480;10.004;2022-10-30T08:58:51;16.10;99.90
7206;DHT22;3644;53.480;10.004;2022-10-30T09:01:17;16.20;99.90
7206;DHT22;3644;53.480;10.004;2022-10-30T09:03:44;16.30;99.90
7206;DHT22;3644;53.480;10.004;2022-10-30T09:06:09;16.30;99.90
7206;DHT22;3644;53.480;10.004;2022-10-30T09:08:35;16.40;99.90
7206;DHT22;3644;53.480;10.004;2022-10-30T09:11:01;16.50;99.90
7206;DHT22;3644;53.480;10.004;2022-10-30T09:13:26;16.60;99.90
7206;DHT22;3644;53.480;10.004;2022-10-30T09:15:52;16.70;99.90
7206;DHT22;3644;53.480;10.004;2022-10-30T09:18:17;16.90;99.90
7206;DHT22;3644;53.480;10.004;2022-10-30T09:20:43;16.90;99.90
7206;DHT22;3644;53.480;10.004;2022-10-30T09:23:08;17.00;99.90
7206;DHT22;3644;53.480;10.004;2022-10-30T09:25:34;17.10;99.90
7206;DHT22;3644;53.480;10.004;2022-10-30T09:28:00;17.20;99.90
7206;DHT22;3644;53.480;10.004;2022-10-30T09:30:25;17.30;99.90
7206;DHT22;3644;53.480;10.004;2022-10-30T09:32:58;17.40;99.90
7206;DHT22;3644;53.480;10.004;2022-10-30T09:35:24;17.50;99.90
7206;DHT22;3644;53.480;10.004;2022-10-30T09:37:50;17.50;99.90
7206;DHT22;3644;53.480;10.004;2022-10-30T09:46:07;17.70;99.90
7206;DHT22;3644;53.480;10.004;2022-10-30T09:48:52;17.80;99.90
7206;DHT22;3644;53.480;10.004;2022-10-30T09:54:46;18.00;99.90
7206;DHT22;3644;53.480;10.004;2022-10-30T10:00:09;18.20;99.90
7206;DHT22;3644;53.480;10.004;2022-10-30T10:02:35;18.20;99.90
7206;DHT22;3644;53.480;10.004;2022-10-30T10:05:18;18.40;99.90
7206;DHT22;3644;53.480;10.004;2022-10-30T10:07:48;18.40;99.90
7206;DHT22;3644;53.480;10.004;2022-10-30T10:10:31;18.50;99.90
7206;DHT22;3644;53.480;10.004;2022-10-30T10:12:58;18.50;99.90
7206;DHT22;3644;53.480;10.004;2022-10-30T10:18:16;18.60;99.90
7206;DHT22;3644;53.480;10.004;2022-10-30T10:20:47;18.70;99.90
7206;DHT22;3644;53.480;10.004;2022-10-30T10:23:23;18.70;99.90
7206;DHT22;3644;53.480;10.004;2022-10-30T10:25:52;18.80;99.90
7206;DHT22;3644;53.480;10.004;2022-10-30T10:28:48;18.80;99.90
7206;DHT22;3644;53.480;10.004;2022-10-30T10:31:29;19.00;99.90
7206;DHT22;3644;53.480;10.004;2022-10-30T10:37:14;19.10;99.90
7206;DHT22;3644;53.480;10.004;2022-10-30T10:39:45;19.10;99.90
7206;DHT22;3644;53.480;10.004;2022-10-30T10:50:32;19.50;99.90
7206;DHT22;3644;53.480;10.004;2022-10-30T10:53:05;19.50;99.90
7206;DHT22;3644;53.480;10.004;2022-10-30T10:55:34;19.50;99.90
7206;DHT22;3644;53.480;10.004;2022-10-30T10:58:10;19.60;99.90
7206;DHT22;3644;53.480;10.004;2022-10-30T11:00:39;19.70;99.90
7206;DHT22;3644;53.480;10.004;2022-10-30T11:03:14;19.70;99.90
7206;DHT22;3644;53.480;10.004;2022-10-30T11:05:58;19.70;99.90
7206;DHT22;3644;53.480;10.004;2022-10-30T11:08:31;19.70;99.90
7206;DHT22;3644;53.480;10.004;2022-10-30T11:10:58;19.70;99.90
7206;DHT22;3644;53.480;10.004;2022-10-30T11:13:45;19.80;99.90
7206;DHT22;3644;53.480;10.004;2022-10-30T11:16:48;19.90;99.90
7206;DHT22;3644;53.480;10.004;2022-10-30T11:19:15;19.90;99.90
7206;DHT22;3644;53.480;10.004;2022-10-30T11:21:49;19.90;99.90
7206;DHT22;3644;53.480;10.004;2022-10-30T11:24:30;20.00;99.90
7206;DHT22;3644;53.480;10.004;2022-10-30T11:26:58;20.00;99.90
7206;DHT22;3644;53.480;10.004;2022-10-30T11:30:15;20.10;99.90
7206;DHT22;3644;53.480;10.004;2022-10-30T11:32:33;20.30;99.90
7206;DHT22;3644;53.480;10.004;2022-10-30T11:37:34;20.40;99.90
7206;DHT22;3644;53.480;10.004;2022-10-30T11:40:04;20.50;99.90
7206;DHT22;3644;53.480;10.004;2022-10-30T11:42:29;20.50;99.90
7206;DHT22;3644;53.480;10.004;2022-10-30T11:44:55;20.50;99.90
7206;DHT22;3644;53.480;10.004;2022-10-30T11:47:35;20.60;99.90
7206;DHT22;3644;53.480;10.004;2022-10-30T11:50:12;20.70;99.90
7206;DHT22;3644;53.480;10.004;2022-10-30T11:52:40;20.70;99.90
7206;DHT22;3644;53.480;10.004;2022-10-30T11:55:19;20.70;99.90
7206;DHT22;3644;53.480;10.004;2022-10-30T11:57:57;20.80;99.90
7206;DHT22;3644;53.480;10.004;2022-10-30T12:00:28;20.80;99.90
7206;DHT22;3644;53.480;10.004;2022-10-30T12:02:56;20.90;99.90
7206;DHT22;3644;53.480;10.004;2022-10-30T12:07:51;20.90;99.90
7206;DHT22;3644;53.480;10.004;2022-10-30T12:10:27;21.00;99.90
7206;DHT22;3644;53.480;10.004;2022-10-30T12:12:53;21.00;99.90
7206;DHT22;3644;53.480;10.004;2022-10-30T12:15:24;21.00;99.90
7206;DHT22;3644;53.480;10.004;2022-10-30T12:17:57;21.00;99.90
7206;DHT22;3644;53.480;10.004;2022-10-30T12:20:23;21.00;99.90
7206;DHT22;3644;53.480;10.004;2022-10-30T12:22:49;21.00;99.90
7206;DHT22;3644;53.480;10.004;2022-10-30T12:25:27;21.10;99.90
7206;DHT22;3644;53.480;10.004;2022-10-30T12:28:03;21.00;99.90
7206;DHT22;3644;53.480;10.004;2022-10-30T12:30:34;21.00;99.90
7206;DHT22;3644;53.480;10.004;2022-10-30T12:33:27;21.00;99.90
7206;DHT22;3644;53.480;10.004;2022-10-30T12:35:58;21.10;99.90
7206;DHT22;3644;53.480;10.004;2022-10-30T12:38:38;21.00;99.90
7206;DHT22;3644;53.480;10.004;2022-10-30T12:41:28;21.00;99.90
7206;DHT22;3644;53.480;10.004;2022-10-30T12:46:44;21.00;99.90
7206;DHT22;3644;53.480;10.004;2022-10-30T12:49:30;21.00;99.90
7206;DHT22;3644;53.480;10.004;2022-10-30T12:52:06;21.10;99.90
7206;DHT22;3644;53.480;10.004;2022-10-30T12:54:50;21.10;99.90
7206;DHT22;3644;53.480;10.004;2022-10-30T12:57:27;21.20;99.90
7206;DHT22;3644;53.480;10.004;2022-10-30T13:00:02;21.20;99.90
7206;DHT22;3644;53.480;10.004;2022-10-30T13:05:01;21.20;99.90
7206;DHT22;3644;53.480;10.004;2022-10-30T13:07:50;21.20;99.90
7206;DHT22;3644;53.480;10.004;2022-10-30T13:10:45;21.20;99.90
7206;DHT22;3644;53.480;10.004;2022-10-30T13:13:33;21.20;99.90
7206;DHT22;3644;53.480;10.004;2022-10-30T13:16:02;21.20;99.90
7206;DHT22;3644;53.480;10.004;2022-10-30T13:18:31;21.10;99.90
7206;DHT22;3644;53.480;10.004;2022-10-30T13:21:17;21.20;99.90
7206;DHT22;3644;53.480;10.004;2022-10-30T13:24:08;21.20;99.90
7206;DHT22;3644;53.480;10.004;2022-10-30T13:26:50;21.20;99.90
7206;DHT22;3644;53.480;10.004;2022-10-30T13:29:31;21.20;99.90
7206;DHT22;3644;53.480;10.004;2022-10-30T13:34:47;21.30;99.90
7206;DHT22;3644;53.480;10.004;2022-10-30T13:40:20;21.30;99.90
7206;DHT22;3644;53.480;10.004;2022-10-30T13:46:07;21.30;99.90
7206;DHT22;3644;53.480;10.004;2022-10-30T13:56:34;21.20;99.90
7206;DHT22;3644;53.480;10.004;2022-10-30T13:59:16;21.20;99.90
7206;DHT22;3644;53.480;10.004;2022-10-30T14:02:02;21.10;99.90
7206;DHT22;3644;53.480;10.004;2022-10-30T14:04:39;21.10;99.90
7206;DHT22;3644;53.480;10.004;2022-10-30T14:07:36;21.10;99.90
7206;DHT22;3644;53.480;10.004;2022-10-30T14:10:14;21.10;99.90
7206;DHT22;3644;53.480;10.004;2022-10-30T14:20:47;21.00;99.90
7206;DHT22;3644;53.480;10.004;2022-10-30T14:23:13;21.00;99.90
7206;DHT22;3644;53.480;10.004;2022-10-30T14:25:40;21.00;99.90
7206;DHT22;3644;53.480;10.004;2022-10-30T14:28:18;21.00;99.90
7206;DHT22;3644;53.480;10.004;2022-10-30T14:30:44;21.00;99.90
7206;DHT22;3644;53.480;10.004;2022-10-30T14:34:25;20.90;99.90
7206;DHT22;3644;53.480;10.004;2022-10-30T14:41:25;20.80;99.90
7206;DHT22;3644;53.480;10.004;2022-10-30T14:44:14;20.80;99.90
7206;DHT22;3644;53.480;10.004;2022-10-30T14:47:01;20.70;99.90
7206;DHT22;3644;53.480;10.004;2022-10-30T14:49:56;20.70;99.90
7206;DHT22;3644;53.480;10.004;2022-10-30T14:55:29;20.60;99.90
7206;DHT22;3644;53.480;10.004;2022-10-30T15:05:53;20.40;99.90
7206;DHT22;3644;53.480;10.004;2022-10-30T15:11:16;20.20;99.90
7206;DHT22;3644;53.480;10.004;2022-10-30T15:13:48;20.10;99.90
7206;DHT22;3644;53.480;10.004;2022-10-30T15:16:18;20.00;99.90
7206;DHT22;3644;53.480;10.004;2022-10-30T15:18:46;19.90;99.90
7206;DHT22;3644;53.480;10.004;2022-10-30T15:21:18;19.90;99.90
7206;DHT22;3644;53.480;10.004;2022-10-30T15:23:47;19.80;99.90
7206;DHT22;3644;53.480;10.004;2022-10-30T15:26:19;19.70;99.90
7206;DHT22;3644;53.480;10.004;2022-10-30T15:28:51;19.60;99.90
7206;DHT22;3644;53.480;10.004;2022-10-30T15:33:42;19.40;99.90
7206;DHT22;3644;53.480;10.004;2022-10-30T15:36:19;19.40;99.90
7206;DHT22;3644;53.480;10.004;2022-10-30T15:39:17;19.30;99.90
7206;DHT22;3644;53.480;10.004;2022-10-30T15:41:47;19.20;99.90
7206;DHT22;3644;53.480;10.004;2022-10-30T15:44:22;19.10;99.90
7206;DHT22;3644;53.480;10.004;2022-10-30T15:46:50;19.00;99.90
7206;DHT22;3644;53.480;10.004;2022-10-30T15:49:36;18.90;99.90
7206;DHT22;3644;53.480;10.004;2022-10-30T15:52:10;18.80;99.90
7206;DHT22;3644;53.480;10.004;2022-10-30T15:54:39;18.70;99.90
7206;DHT22;3644;53.480;10.004;2022-10-30T15:57:15;18.70;99.90
7206;DHT22;3644;53.480;10.004;2022-10-30T15:59:49;18.60;99.90
7206;DHT22;3644;53.480;10.004;2022-10-30T16:02:20;18.50;99.90
7206;DHT22;3644;53.480;10.004;2022-10-30T16:04:46;18.50;99.90
7206;DHT22;3644;53.480;10.004;2022-10-30T16:07:27;18.40;99.90
7206;DHT22;3644;53.480;10.004;2022-10-30T16:09:55;18.40;99.90
7206;DHT22;3644;53.480;10.004;2022-10-30T16:12:30;18.30;99.90
7206;DHT22;3644;53.480;10.004;2022-10-30T16:14:59;18.20;99.90
7206;DHT22;3644;53.480;10.004;2022-10-30T16:17:26;18.10;99.90
7206;DHT22;3644;53.480;10.004;2022-10-30T16:19:55;18.10;99.90
7206;DHT22;3644;53.480;10.004;2022-10-30T16:22:29;18.10;99.90
7206;DHT22;3644;53.480;10.004;2022-10-30T16:24:57;18.00;99.90
7206;DHT22;3644;53.480;10.004;2022-10-30T16:27:24;17.90;99.90
7206;DHT22;3644;53.480;10.004;2022-10-30T16:29:52;17.90;99.90
7206;DHT22;3644;53.480;10.004;2022-10-30T16:32:20;17.90;99.90
7206;DHT22;3644;53.480;10.004;2022-10-30T16:34:46;17.90;99.90
7206;DHT22;3644;53.480;10.004;2022-10-30T16:37:34;17.80;99.90
7206;DHT22;3644;53.480;10.004;2022-10-30T16:40:18;17.90;99.90
7206;DHT22;3644;53.480;10.004;2022-10-30T16:43:00;17.80;99.90
7206;DHT22;3644;53.480;10.004;2022-10-30T16:48:01;17.70;99.90
7206;DHT22;3644;53.480;10.004;2022-10-30T16:50:34;17.60;99.90
7206;DHT22;3644;53.480;10.004;2022-10-30T16:53:05;17.50;99.90
7206;DHT22;3644;53.480;10.004;2022-10-30T16:55:31;17.50;99.90
7206;DHT22;3644;53.480;10.004;2022-10-30T16:57:58;17.40;99.90
7206;DHT22;3644;53.480;10.004;2022-10-30T17:00:26;17.40;99.90
7206;DHT22;3644;53.480;10.004;2022-10-30T17:02:53;17.40;99.90
7206;DHT22;3644;53.480;10.004;2022-10-30T17:05:26;17.40;99.90
7206;DHT22;3644;53.480;10.004;2022-10-30T17:08:00;17.30;99.90
7206;DHT22;3644;53.480;10.004;2022-10-30T17:10:33;17.30;99.90
7206;DHT22;3644;53.480;10.004;2022-10-30T17:13:37;17.20;99.90
7206;DHT22;3644;53.480;10.004;2022-10-30T17:18:43;17.10;99.90
7206;DHT22;3644;53.480;10.004;2022-10-30T17:21:11;17.00;99.90
7206;DHT22;3644;53.480;10.004;2022-10-30T17:23:44;17.00;99.90
7206;DHT22;3644;53.480;10.004;2022-10-30T17:26:11;17.00;99.90
7206;DHT22;3644;53.480;10.004;2022-10-30T17:28:38;17.00;99.90
7206;DHT22;3644;53.480;10.004;2022-10-30T17:31:26;16.90;99.90
7206;DHT22;3644;53.480;10.004;2022-10-30T17:36:38;16.80;99.90
7206;DHT22;3644;53.480;10.004;2022-10-30T17:39:03;16.80;99.90
7206;DHT22;3644;53.480;10.004;2022-10-30T17:41:29;16.70;99.90
7206;DHT22;3644;53.480;10.004;2022-10-30T17:43:55;16.70;99.90
7206;DHT22;3644;53.480;10.004;2022-10-30T17:46:22;16.70;99.90
7206;DHT22;3644;53.480;10.004;2022-10-30T17:48:48;16.60;99.90